Time;durP1;ratioP1;P1;durP2;ratioP2;P2;SDS_P1;SDS_P2;PMS_P1;PMS_P2;Temp;Humidity;BMP_temperature;BMP_pressure;BME280_temperature;BME280_humidity;BME280_pressure;Samples;Min_cycle;Max_cycle;Signal;HPM_P1;HPM_P2
2021/12/08 00:00:50;;;;;;;64.67;57.97;;;-3.40;99.90;;;;;;5098844;28;20225;-70
2021/12/08 00:03:39;;;;;;;61.73;55.77;;;-3.20;99.90;;;;;;5095956;27;20324;-72
2021/12/08 00:06:28;;;;;;;60.70;54.67;;;-3.20;99.90;;;;;;5095542;27;23653;-70
2021/12/08 00:09:27;;;;;;;64.93;58.57;;;-3.20;99.90;;;;;;5094404;28;20378;-69
2021/12/08 00:15:23;;;;;;;60.63;54.50;;;-3.70;99.90;;;;;;5094513;28;20277;-70
2021/12/08 00:18:16;;;;;;;62.73;56.30;;;-3.80;99.90;;;;;;5091013;27;20646;-69
2021/12/08 00:21:09;;;;;;;61.47;55.17;;;-3.60;99.90;;;;;;5094347;28;20219;-71
2021/12/08 00:23:58;;;;;;;62.90;56.30;;;-3.70;99.90;;;;;;5090219;28;20225;-70
2021/12/08 00:26:47;;;;;;;64.67;58.27;;;-3.30;99.90;;;;;;5096154;28;20239;-69
2021/12/08 00:29:37;;;;;;;62.20;55.90;;;-3.30;99.90;;;;;;5094010;28;20234;-71
2021/12/08 00:32:28;;;;;;;65.10;58.27;;;-3.40;99.90;;;;;;5093120;28;20228;-70
2021/12/08 00:35:19;;;;;;;63.90;57.17;;;-3.30;99.90;;;;;;5089760;27;20324;-71
2021/12/08 00:38:08;;;;;;;59.70;52.90;;;-3.40;99.90;;;;;;5096619;28;20258;-69
2021/12/08 00:40:58;;;;;;;60.97;54.83;;;-3.60;99.90;;;;;;5097382;27;20343;-69
2021/12/08 00:43:46;;;;;;;66.30;59.40;;;-3.50;99.90;;;;;;5096350;27;20227;-70
2021/12/08 00:46:36;;;;;;;56.47;51.13;;;-3.30;99.90;;;;;;5091261;28;20223;-69
2021/12/08 00:49:25;;;;;;;63.57;56.87;;;-3.50;99.90;;;;;;5094861;28;20219;-68
2021/12/08 00:52:16;;;;;;;61.80;55.57;;;-3.70;99.90;;;;;;5098113;28;20310;-71
2021/12/08 00:55:06;;;;;;;64.10;57.57;;;-3.70;99.90;;;;;;5090971;27;20583;-69
2021/12/08 00:57:56;;;;;;;62.43;56.03;;;-3.40;99.90;;;;;;5098015;27;20238;-72
2021/12/08 01:00:48;;;;;;;61.47;55.43;;;-3.50;99.90;;;;;;5097100;28;20220;-71
2021/12/08 01:03:38;;;;;;;57.70;52.17;;;-3.30;99.90;;;;;;5095137;27;20233;-71
2021/12/08 01:06:27;;;;;;;66.33;59.73;;;-3.60;99.90;;;;;;5098929;28;20323;-70
2021/12/08 01:09:18;;;;;;;67.07;60.40;;;-3.90;99.90;;;;;;5110459;27;20301;-71
2021/12/08 01:12:07;;;;;;;57.60;52.30;;;-3.80;99.90;;;;;;5095667;27;20717;-71
2021/12/08 01:14:57;;;;;;;66.50;58.17;;;-3.90;99.90;;;;;;5091395;27;20230;-71
2021/12/08 01:17:46;;;;;;;63.00;56.33;;;-3.80;99.90;;;;;;5094271;28;20341;-72
2021/12/08 01:20:35;;;;;;;60.90;54.53;;;-3.60;99.90;;;;;;5090333;28;20219;-72
2021/12/08 01:23:24;;;;;;;58.60;53.00;;;-3.80;99.90;;;;;;5095900;28;20229;-72
2021/12/08 01:26:14;;;;;;;66.27;59.07;;;-3.70;99.90;;;;;;5099716;28;20216;-72
2021/12/08 01:29:03;;;;;;;67.87;60.77;;;-3.80;99.90;;;;;;5095460;28;20518;-72
2021/12/08 01:31:52;;;;;;;62.13;55.53;;;-3.60;99.90;;;;;;5088957;28;20217;-72
2021/12/08 01:34:41;;;;;;;60.50;53.93;;;-3.60;99.90;;;;;;5087162;28;20292;-73
2021/12/08 01:37:30;;;;;;;63.37;56.10;;;-3.70;99.90;;;;;;5114550;27;20220;-71
2021/12/08 01:40:22;;;;;;;68.57;61.03;;;-3.60;99.90;;;;;;5096194;27;20231;-71
2021/12/08 01:43:24;;;;;;;68.93;59.23;;;-3.70;99.90;;;;;;5090131;28;20219;-71
2021/12/08 01:46:13;;;;;;;66.73;59.70;;;-3.60;99.90;;;;;;5092170;28;20739;-71
2021/12/08 01:49:04;;;;;;;69.87;58.80;;;-3.60;99.90;;;;;;5090356;28;20389;-70
2021/12/08 01:51:53;;;;;;;66.47;59.37;;;-3.70;99.90;;;;;;5091571;28;20225;-71
2021/12/08 01:54:42;;;;;;;66.20;59.07;;;-3.60;99.90;;;;;;5089530;28;20221;-70
2021/12/08 01:57:30;;;;;;;67.20;59.90;;;-3.60;99.90;;;;;;5094220;28;20219;-71
2021/12/08 02:00:25;;;;;;;69.03;60.23;;;-3.50;99.90;;;;;;5098959;27;20221;-72
2021/12/08 02:03:19;;;;;;;64.93;57.73;;;-3.40;99.90;;;;;;5095208;28;20728;-71
2021/12/08 02:06:09;;;;;;;71.00;60.47;;;-3.50;99.90;;;;;;5091888;28;20335;-71
2021/12/08 02:08:58;;;;;;;66.03;58.87;;;-3.50;99.90;;;;;;5088185;28;20234;-72
2021/12/08 02:11:52;;;;;;;67.23;60.17;;;-3.40;99.90;;;;;;5097928;28;20235;-72
2021/12/08 02:14:41;;;;;;;75.43;65.30;;;-3.50;99.90;;;;;;5093104;28;20221;-72
2021/12/08 02:17:31;;;;;;;70.40;62.37;;;-3.50;99.90;;;;;;5092833;28;20229;-71
2021/12/08 02:20:21;;;;;;;65.27;58.17;;;-3.30;99.90;;;;;;5091266;28;20221;-71
2021/12/08 02:23:11;;;;;;;70.77;63.00;;;-3.70;99.90;;;;;;5093871;28;20272;-72
2021/12/08 02:26:00;;;;;;;67.03;59.80;;;-3.80;99.90;;;;;;5092222;28;20221;-71
2021/12/08 02:28:49;;;;;;;74.77;65.20;;;-3.80;99.90;;;;;;5095842;27;20701;-69
2021/12/08 02:31:45;;;;;;;67.63;60.37;;;-3.60;99.90;;;;;;5092871;27;20229;-71
2021/12/08 02:47:09;;;;;;;66.00;59.13;;;-3.50;99.90;;;;;;5061620;27;20533;-71
2021/12/08 02:49:59;;;;;;;61.10;54.97;;;-3.70;99.90;;;;;;5094962;27;20228;-71
2021/12/08 02:52:48;;;;;;;66.27;59.47;;;-4.10;99.90;;;;;;5079889;27;20306;-72
2021/12/08 02:55:37;;;;;;;63.00;56.40;;;-4.10;99.90;;;;;;5080290;28;20231;-70
2021/12/08 02:58:27;;;;;;;61.80;56.20;;;-4.10;99.90;;;;;;5083066;28;20226;-71
2021/12/08 03:01:16;;;;;;;59.53;53.70;;;-4.00;99.90;;;;;;5099392;27;20301;-71
2021/12/08 03:04:06;;;;;;;62.80;56.43;;;-4.00;99.90;;;;;;5083516;28;20234;-71
2021/12/08 03:06:55;;;;;;;62.23;56.23;;;-3.70;99.90;;;;;;5097414;27;20591;-71
2021/12/08 03:09:45;;;;;;;65.37;59.13;;;-3.50;99.90;;;;;;5087028;27;20241;-73
2021/12/08 03:12:33;;;;;;;60.57;54.90;;;-3.40;99.90;;;;;;5104585;27;20298;-72
2021/12/08 03:15:24;;;;;;;62.67;56.93;;;-3.50;99.90;;;;;;5097772;27;20216;-72
2021/12/08 03:18:13;;;;;;;63.13;57.37;;;-3.60;99.90;;;;;;5083628;28;20224;-71
2021/12/08 03:21:03;;;;;;;61.23;54.93;;;-3.60;99.90;;;;;;5085919;27;20244;-70
2021/12/08 03:24:04;;;;;;;60.57;55.13;;;-3.60;99.90;;;;;;5097899;28;20229;-70
2021/12/08 03:27:05;;;;;;;64.27;58.10;;;-3.50;99.90;;;;;;5088060;27;20212;-73
2021/12/08 03:29:57;;;;;;;62.13;56.17;;;-3.40;99.90;;;;;;5093642;27;20605;-73
2021/12/08 03:32:47;;;;;;;57.87;52.67;;;-3.40;99.90;;;;;;5097048;27;20220;-73
2021/12/08 03:35:36;;;;;;;59.37;53.67;;;-3.40;99.90;;;;;;5095716;28;20229;-70
2021/12/08 03:38:25;;;;;;;60.80;54.87;;;-3.50;99.90;;;;;;5100101;27;20254;-70
2021/12/08 03:41:15;;;;;;;60.40;54.70;;;-3.50;99.90;;;;;;5100965;27;20235;-70
2021/12/08 03:44:05;;;;;;;62.83;56.67;;;-3.60;99.90;;;;;;5095808;27;20244;-72
2021/12/08 03:46:59;;;;;;;61.50;55.93;;;-3.50;99.90;;;;;;5098674;28;20231;-73
2021/12/08 03:49:49;;;;;;;56.63;51.37;;;-3.40;99.90;;;;;;5098208;28;20241;-70
2021/12/08 03:52:38;;;;;;;58.80;53.60;;;-3.40;99.90;;;;;;5100274;28;20267;-73
2021/12/08 03:55:28;;;;;;;57.23;52.07;;;-3.30;99.90;;;;;;5095369;27;20216;-72
2021/12/08 03:58:17;;;;;;;59.67;54.00;;;-3.30;99.90;;;;;;5096777;28;20221;-67
2021/12/08 04:01:08;;;;;;;60.17;54.67;;;-3.60;99.90;;;;;;5096040;27;20228;-71
2021/12/08 04:04:02;;;;;;;61.30;55.73;;;-3.90;99.90;;;;;;5092951;28;20231;-70
2021/12/08 04:06:53;;;;;;;59.70;54.50;;;-3.80;99.90;;;;;;5095800;28;20556;-71
2021/12/08 04:09:44;;;;;;;58.23;52.90;;;-3.70;99.90;;;;;;5095393;27;20234;-69
2021/12/08 04:12:33;;;;;;;60.93;55.63;;;-3.70;99.90;;;;;;5095554;27;20252;-73
2021/12/08 04:15:25;;;;;;;59.73;54.17;;;-3.60;99.90;;;;;;5096187;27;20249;-69
2021/12/08 04:18:14;;;;;;;59.93;54.47;;;-3.60;99.90;;;;;;5096281;28;20221;-72
2021/12/08 04:21:05;;;;;;;61.17;55.57;;;-3.40;99.90;;;;;;5096449;28;20232;-71
2021/12/08 04:23:55;;;;;;;61.33;55.70;;;-3.50;99.90;;;;;;5101423;27;20223;-71
2021/12/08 04:26:49;;;;;;;57.30;52.30;;;-3.60;99.90;;;;;;5100817;28;20227;-71
2021/12/08 04:29:41;;;;;;;59.93;54.30;;;-3.80;99.90;;;;;;5098869;28;20224;-65
2021/12/08 04:32:32;;;;;;;59.63;54.00;;;-4.00;99.90;;;;;;5096289;28;20216;-72
2021/12/08 04:35:22;;;;;;;61.87;56.13;;;-4.10;99.90;;;;;;5098322;27;20224;-71
2021/12/08 04:38:17;;;;;;;60.63;54.93;;;-4.10;99.90;;;;;;5093838;27;20723;-72
2021/12/08 04:41:12;;;;;;;61.00;55.23;;;-4.00;99.90;;;;;;5096193;28;20223;-70
2021/12/08 04:44:11;;;;;;;55.37;50.47;;;-4.10;99.90;;;;;;5098207;27;21114;-71
2021/12/08 04:47:29;;;;;;;63.10;56.87;;;-4.10;99.90;;;;;;5095554;28;20554;-70
2021/12/08 04:53:37;;;;;;;60.57;54.77;;;-4.10;99.90;;;;;;5094804;27;20854;-71
2021/12/08 05:03:03;;;;;;;65.23;58.87;;;-3.90;99.90;;;;;;5102533;27;20228;-72
2021/12/08 05:06:07;;;;;;;60.17;54.67;;;-4.10;99.90;;;;;;5094238;27;20244;-72
2021/12/08 05:08:58;;;;;;;58.90;53.20;;;-4.00;99.90;;;;;;5090316;28;20561;-71
2021/12/08 05:11:52;;;;;;;56.23;51.43;;;-3.80;99.90;;;;;;5098351;27;20225;-71
2021/12/08 05:14:46;;;;;;;64.00;57.60;;;-4.30;99.90;;;;;;5095828;27;20219;-71
2021/12/08 05:17:39;;;;;;;60.17;54.77;;;-4.00;99.90;;;;;;5093525;27;20220;-70
2021/12/08 05:20:34;;;;;;;58.07;53.13;;;-4.10;99.90;;;;;;5092786;27;20217;-70
2021/12/08 05:23:29;;;;;;;57.77;52.47;;;-4.30;99.90;;;;;;5093189;28;20240;-70
2021/12/08 05:26:24;;;;;;;58.87;53.67;;;-4.50;99.90;;;;;;5098677;28;20316;-69
2021/12/08 05:29:17;;;;;;;56.57;51.50;;;-4.50;99.90;;;;;;5093189;28;20310;-71
2021/12/08 05:32:07;;;;;;;54.03;49.53;;;-4.50;99.90;;;;;;5099290;27;20319;-70
2021/12/08 05:34:56;;;;;;;59.20;54.10;;;-4.50;99.90;;;;;;5093394;28;20227;-70
2021/12/08 05:37:46;;;;;;;58.27;53.17;;;-4.30;99.90;;;;;;5092478;27;20224;-71
2021/12/08 05:40:38;;;;;;;57.80;52.60;;;-4.20;99.90;;;;;;5091902;28;20716;-71
2021/12/08 05:43:27;;;;;;;55.40;50.23;;;-4.20;99.90;;;;;;5092232;28;20223;-70
2021/12/08 05:46:23;;;;;;;58.13;52.77;;;-4.20;99.90;;;;;;5095979;28;20225;-72
2021/12/08 05:49:14;;;;;;;59.07;53.57;;;-4.20;99.90;;;;;;5092271;27;20250;-72
2021/12/08 05:52:04;;;;;;;58.07;52.77;;;-4.40;99.90;;;;;;5093058;28;20379;-71
2021/12/08 05:54:53;;;;;;;58.10;53.10;;;-4.10;99.90;;;;;;5091017;27;20227;-72
2021/12/08 05:57:45;;;;;;;56.73;51.60;;;-3.90;99.90;;;;;;5095891;28;20225;-71
2021/12/08 06:00:39;;;;;;;53.27;48.63;;;-3.80;99.90;;;;;;5092187;28;20238;-68
2021/12/08 06:03:30;;;;;;;56.87;51.73;;;-4.00;99.90;;;;;;5091337;28;20358;-70
2021/12/08 06:06:21;;;;;;;56.07;51.37;;;-3.90;99.90;;;;;;5096177;28;20339;-70
2021/12/08 06:09:13;;;;;;;58.33;53.30;;;-4.00;99.90;;;;;;5083540;28;20527;-71
2021/12/08 06:12:04;;;;;;;57.73;52.63;;;-4.00;99.90;;;;;;5081190;28;20219;-71
2021/12/08 06:14:55;;;;;;;55.33;50.53;;;-4.00;99.90;;;;;;5085782;28;20236;-71
2021/12/08 06:17:44;;;;;;;53.53;49.43;;;-4.30;99.90;;;;;;5080039;28;21483;-71
2021/12/08 06:20:35;;;;;;;52.47;47.97;;;-4.40;99.90;;;;;;5094704;28;20240;-69
2021/12/08 06:23:24;;;;;;;55.10;50.47;;;-4.60;99.90;;;;;;5089720;28;20742;-70
2021/12/08 06:26:15;;;;;;;52.33;48.13;;;-4.70;99.90;;;;;;5088687;28;20535;-72
2021/12/08 06:29:09;;;;;;;55.37;50.20;;;-4.80;99.90;;;;;;5093059;28;20224;-71
2021/12/08 06:32:01;;;;;;;56.00;50.70;;;-4.70;99.90;;;;;;5092184;28;20248;-73
2021/12/08 06:34:57;;;;;;;57.70;52.93;;;-4.40;99.90;;;;;;5098644;28;20226;-73
2021/12/08 06:37:51;;;;;;;59.80;54.17;;;-4.40;99.90;;;;;;5090305;27;20609;-72
2021/12/08 06:40:47;;;;;;;56.13;50.97;;;-4.50;99.90;;;;;;5095455;28;20221;-72
2021/12/08 06:43:40;;;;;;;53.80;49.07;;;-4.30;99.90;;;;;;5100406;27;20225;-73
2021/12/08 06:46:30;;;;;;;53.67;49.20;;;-4.50;99.90;;;;;;5100953;27;20313;-71
2021/12/08 06:49:22;;;;;;;51.73;47.50;;;-4.30;99.90;;;;;;5094677;27;20779;-71
2021/12/08 06:52:16;;;;;;;54.57;49.50;;;-4.20;99.90;;;;;;5097721;27;20336;-74
2021/12/08 06:55:12;;;;;;;55.23;50.70;;;-4.30;99.90;;;;;;5100199;27;20257;-72
2021/12/08 06:58:05;;;;;;;56.73;51.60;;;-4.00;99.90;;;;;;5096391;27;20735;-73
2021/12/08 07:01:11;;;;;;;56.23;51.43;;;-4.20;99.90;;;;;;5098149;27;20337;-71
2021/12/08 07:04:12;;;;;;;56.73;52.10;;;-4.10;99.90;;;;;;5090553;28;20533;-71
2021/12/08 07:07:12;;;;;;;55.40;50.53;;;-4.00;99.90;;;;;;5090812;27;20620;-76
2021/12/08 07:10:05;;;;;;;55.20;50.50;;;-4.10;99.90;;;;;;5097783;27;20620;-71
2021/12/08 07:12:59;;;;;;;59.33;54.23;;;-4.10;99.90;;;;;;5108454;27;20662;-74
2021/12/08 07:15:56;;;;;;;57.10;52.07;;;-4.00;99.90;;;;;;5090468;27;20369;-75
2021/12/08 07:18:53;;;;;;;53.30;49.13;;;-4.00;99.90;;;;;;5066994;28;20669;-70
2021/12/08 07:21:46;;;;;;;54.67;49.43;;;-4.10;99.90;;;;;;5089275;27;20227;-70
2021/12/08 07:24:38;;;;;;;54.90;50.17;;;-4.10;99.90;;;;;;5076117;27;20319;-71
2021/12/08 07:27:30;;;;;;;57.50;52.47;;;-4.30;99.90;;;;;;5089759;27;20287;-70
2021/12/08 07:30:23;;;;;;;52.10;47.60;;;-4.30;99.90;;;;;;5094625;27;20714;-71
2021/12/08 07:33:13;;;;;;;56.70;51.53;;;-4.50;99.90;;;;;;5098889;27;20223;-71
2021/12/08 07:36:09;;;;;;;55.47;50.73;;;-4.40;99.90;;;;;;5089038;27;20729;-70
2021/12/08 07:39:00;;;;;;;57.70;52.73;;;-4.30;99.90;;;;;;5098481;27;20228;-71
2021/12/08 07:41:53;;;;;;;58.00;52.77;;;-4.10;99.90;;;;;;5093301;27;20236;-72
2021/12/08 07:44:41;;;;;;;52.70;48.30;;;-4.10;99.90;;;;;;5096791;27;20224;-72
2021/12/08 07:47:32;;;;;;;58.30;53.27;;;-4.30;99.90;;;;;;5096193;27;20227;-71
2021/12/08 07:50:25;;;;;;;54.57;49.70;;;-4.30;99.90;;;;;;5093556;28;20866;-71
2021/12/08 07:53:18;;;;;;;53.87;49.10;;;-4.40;99.90;;;;;;5092990;28;20221;-72
2021/12/08 07:56:11;;;;;;;60.07;54.93;;;-4.40;99.90;;;;;;5095460;28;20229;-74
2021/12/08 07:59:04;;;;;;;57.37;52.57;;;-4.40;99.90;;;;;;5095769;27;20248;-71
2021/12/08 08:01:56;;;;;;;54.47;50.10;;;-4.10;99.90;;;;;;5099895;27;20232;-72
2021/12/08 08:04:49;;;;;;;54.27;49.83;;;-4.40;99.90;;;;;;5095211;28;20222;-74
2021/12/08 08:07:40;;;;;;;57.97;52.57;;;-4.50;99.90;;;;;;5092511;27;20241;-73
2021/12/08 08:10:29;;;;;;;55.90;51.30;;;-4.60;99.90;;;;;;5097526;28;20222;-73
2021/12/08 08:13:21;;;;;;;57.70;52.30;;;-4.40;99.90;;;;;;5100778;27;20215;-73
2021/12/08 08:16:13;;;;;;;57.17;52.07;;;-4.20;99.90;;;;;;5096286;28;20219;-71
2021/12/08 08:19:10;;;;;;;56.90;51.80;;;-4.10;99.90;;;;;;5088385;28;20217;-74
2021/12/08 08:22:04;;;;;;;60.93;55.43;;;-4.00;99.90;;;;;;5096998;27;20258;-73
2021/12/08 08:24:54;;;;;;;59.77;54.17;;;-4.00;99.90;;;;;;5094608;27;20227;-74
2021/12/08 08:27:43;;;;;;;58.10;52.93;;;-4.00;99.90;;;;;;5090703;27;20276;-73
2021/12/08 08:30:39;;;;;;;57.40;52.40;;;-4.10;99.90;;;;;;5096036;27;20248;-71
2021/12/08 08:33:29;;;;;;;59.43;53.77;;;-4.10;99.90;;;;;;5085066;27;20690;-73
2021/12/08 08:36:22;;;;;;;57.07;51.23;;;-4.00;99.90;;;;;;5097251;27;20216;-74
2021/12/08 08:39:15;;;;;;;57.53;52.53;;;-3.90;99.90;;;;;;5092364;28;20250;-71
2021/12/08 08:42:08;;;;;;;58.10;52.57;;;-3.60;99.90;;;;;;5091778;27;20246;-72
2021/12/08 08:45:00;;;;;;;58.93;53.40;;;-3.70;99.90;;;;;;5092949;27;20311;-72
2021/12/08 08:47:52;;;;;;;58.33;52.97;;;-3.70;99.90;;;;;;5098549;28;20303;-72
2021/12/08 08:50:45;;;;;;;59.60;54.03;;;-3.50;99.90;;;;;;5094429;28;20692;-74
2021/12/08 08:53:37;;;;;;;59.47;53.80;;;-3.60;99.90;;;;;;5093564;28;20343;-72
2021/12/08 08:56:30;;;;;;;58.60;53.30;;;-3.50;99.90;;;;;;5097375;28;20225;-72
2021/12/08 08:59:25;;;;;;;60.10;54.03;;;-3.40;99.90;;;;;;5088126;28;20232;-73
2021/12/08 09:02:17;;;;;;;58.37;53.07;;;-3.50;99.90;;;;;;5087673;28;20235;-73
2021/12/08 09:05:13;;;;;;;58.83;53.27;;;-3.60;99.90;;;;;;5084501;27;20227;-74
2021/12/08 09:08:24;;;;;;;51.57;47.80;;;-3.40;99.90;;;;;;5090111;27;20688;-71
2021/12/08 09:11:20;;;;;;;61.73;56.07;;;-3.70;99.90;;;;;;5091577;27;20216;-73
2021/12/08 09:14:16;;;;;;;56.60;51.40;;;-3.40;99.90;;;;;;5085142;28;20208;-73
2021/12/08 09:17:09;;;;;;;60.80;55.17;;;-3.50;99.90;;;;;;5090383;27;20289;-72
2021/12/08 09:20:03;;;;;;;60.33;54.63;;;-3.60;99.90;;;;;;5091572;27;20257;-74
2021/12/08 09:22:57;;;;;;;57.50;52.20;;;-3.60;99.90;;;;;;5090081;27;20759;-75
2021/12/08 09:25:50;;;;;;;59.20;53.43;;;-3.60;99.90;;;;;;5092330;28;20227;-74
2021/12/08 09:28:43;;;;;;;59.10;52.97;;;-3.40;99.90;;;;;;5090268;27;20282;-73
2021/12/08 09:31:37;;;;;;;60.13;54.43;;;-3.30;99.90;;;;;;5074728;28;20224;-72
2021/12/08 09:34:31;;;;;;;60.03;54.20;;;-3.40;99.90;;;;;;5060862;28;20320;-73
2021/12/08 09:37:22;;;;;;;58.97;53.23;;;-3.30;99.90;;;;;;5073361;28;20364;-70
2021/12/08 09:40:16;;;;;;;58.47;52.90;;;-3.50;99.90;;;;;;5075513;28;20795;-72
2021/12/08 09:43:08;;;;;;;58.30;52.63;;;-3.50;99.90;;;;;;5074389;28;20220;-69
2021/12/08 09:46:03;;;;;;;60.00;53.97;;;-3.50;99.90;;;;;;5074518;28;20236;-71
2021/12/08 09:48:53;;;;;;;57.23;52.13;;;-3.70;99.90;;;;;;5069550;28;20564;-70
2021/12/08 09:51:43;;;;;;;58.60;52.73;;;-3.70;99.90;;;;;;5071350;28;20230;-71
2021/12/08 09:54:32;;;;;;;59.70;53.70;;;-3.60;99.90;;;;;;5065046;28;20738;-70
2021/12/08 09:57:21;;;;;;;52.53;48.27;;;-3.40;99.90;;;;;;5058451;28;20244;-70
2021/12/08 10:00:15;;;;;;;54.73;49.63;;;-3.30;99.90;;;;;;5075924;28;20582;-69
2021/12/08 10:03:05;;;;;;;55.27;50.47;;;-3.50;99.90;;;;;;5074967;28;20288;-70
2021/12/08 10:05:55;;;;;;;60.23;54.80;;;-3.40;99.90;;;;;;5071018;28;20707;-70
2021/12/08 10:08:45;;;;;;;59.60;53.87;;;-3.00;99.90;;;;;;5056150;28;20301;-71
2021/12/08 10:11:35;;;;;;;59.07;53.33;;;-3.00;99.90;;;;;;5078753;28;20222;-70
2021/12/08 10:14:24;;;;;;;61.10;55.13;;;-2.90;99.90;;;;;;5074908;28;20733;-70
2021/12/08 10:17:14;;;;;;;59.97;54.30;;;-2.50;99.90;;;;;;5074761;28;20305;-72
2021/12/08 10:20:13;;;;;;;64.20;57.60;;;-2.80;99.90;;;;;;5058463;28;20595;-68
2021/12/08 10:23:27;;;;;;;64.53;57.63;;;-2.80;99.90;;;;;;5066086;28;20221;-69
2021/12/08 10:26:20;;;;;;;64.03;57.80;;;-2.70;99.90;;;;;;5064900;28;20218;-70
2021/12/08 10:29:09;;;;;;;62.53;56.77;;;-2.60;99.90;;;;;;5082743;27;20225;-69
2021/12/08 10:32:00;;;;;;;60.23;54.40;;;-2.50;99.90;;;;;;5098263;28;21561;-69
2021/12/08 10:35:03;;;;;;;61.10;55.13;;;-2.70;99.90;;;;;;5099538;28;20218;-70
2021/12/08 10:38:00;;;;;;;56.53;51.43;;;-2.60;99.90;;;;;;5097633;28;20320;-69
2021/12/08 10:41:02;;;;;;;58.30;52.57;;;-2.40;99.90;;;;;;5095627;28;20225;-69
2021/12/08 10:44:00;;;;;;;61.13;55.30;;;-2.80;99.90;;;;;;5095247;28;20588;-70
2021/12/08 10:46:54;;;;;;;62.07;56.17;;;-3.00;99.90;;;;;;5103907;27;20228;-70
2021/12/08 10:56:08;;;;;;;59.33;54.00;;;-3.20;99.90;;;;;;5094213;28;20241;-68
2021/12/08 10:58:59;;;;;;;63.00;56.27;;;-3.90;99.90;;;;;;5089872;27;20691;-71
2021/12/08 11:01:48;;;;;;;58.80;53.13;;;-3.20;99.90;;;;;;5070463;28;20396;-69
2021/12/08 11:04:38;;;;;;;61.47;55.57;;;-3.20;99.90;;;;;;5054858;28;20279;-69
2021/12/08 11:07:27;;;;;;;63.60;57.17;;;-3.00;99.90;;;;;;5055637;28;20223;-72
2021/12/08 11:10:19;;;;;;;65.87;59.50;;;-3.00;99.90;;;;;;5055993;28;21011;-69
2021/12/08 11:13:09;;;;;;;63.00;57.17;;;-2.80;99.90;;;;;;5056701;28;20296;-71
2021/12/08 11:16:05;;;;;;;57.20;52.40;;;-2.70;99.90;;;;;;5067691;28;20214;-69
2021/12/08 11:18:59;;;;;;;62.23;55.80;;;-2.90;99.90;;;;;;5059104;28;20233;-70
2021/12/08 11:21:50;;;;;;;63.47;57.30;;;-2.80;99.90;;;;;;5055840;28;20290;-69
2021/12/08 11:24:46;;;;;;;60.83;54.50;;;-2.70;99.90;;;;;;5068321;28;20217;-70
2021/12/08 11:27:36;;;;;;;61.87;56.07;;;-2.60;99.90;;;;;;5054860;28;20309;-68
2021/12/08 11:30:28;;;;;;;65.23;58.83;;;-2.70;99.90;;;;;;5056568;28;20234;-70
2021/12/08 11:33:24;;;;;;;63.87;57.37;;;-2.50;99.90;;;;;;5056055;28;20234;-70
2021/12/08 11:36:16;;;;;;;61.87;56.10;;;-2.30;99.90;;;;;;5058590;28;20218;-69
2021/12/08 11:39:12;;;;;;;62.63;56.40;;;-2.30;99.90;;;;;;5072453;28;20225;-70
2021/12/08 11:42:06;;;;;;;58.73;53.50;;;-2.20;99.90;;;;;;5065666;28;20229;-70
2021/12/08 11:44:58;;;;;;;60.47;54.67;;;-2.20;99.90;;;;;;5073695;28;20252;-69
2021/12/08 11:47:47;;;;;;;61.33;55.47;;;-2.20;99.90;;;;;;5074618;28;20557;-71
2021/12/08 11:50:38;;;;;;;63.47;57.33;;;-2.20;99.90;;;;;;5083394;28;20241;-71
2021/12/08 11:53:27;;;;;;;64.27;58.17;;;-2.30;99.90;;;;;;5096277;28;20225;-70
2021/12/08 11:56:35;;;;;;;60.53;54.80;;;-2.40;99.90;;;;;;5081231;28;20248;-72
2021/12/08 11:59:24;;;;;;;62.73;56.93;;;-2.50;99.90;;;;;;5080349;28;20223;-71
2021/12/08 12:02:15;;;;;;;60.47;54.67;;;-2.30;99.90;;;;;;5084258;28;20241;-75
2021/12/08 12:05:07;;;;;;;61.27;55.47;;;-2.10;99.90;;;;;;5092864;28;20220;-71
2021/12/08 12:07:58;;;;;;;65.40;59.03;;;-2.30;99.90;;;;;;5091784;28;20241;-72
2021/12/08 12:10:49;;;;;;;63.13;57.23;;;-2.10;99.90;;;;;;5081733;28;20248;-75
2021/12/08 12:13:38;;;;;;;63.90;57.87;;;-2.30;99.90;;;;;;5055194;28;20231;-73
2021/12/08 12:16:28;;;;;;;64.53;58.37;;;-2.20;99.90;;;;;;5081808;28;20316;-74
2021/12/08 12:19:20;;;;;;;65.53;59.13;;;-2.20;99.90;;;;;;5083193;28;20275;-70
2021/12/08 12:22:32;;;;;;;67.27;60.70;;;-1.80;99.90;;;;;;5081704;28;20235;-72
2021/12/08 12:25:37;;;;;;;62.53;57.00;;;-1.80;99.90;;;;;;5068410;28;20226;-71
2021/12/08 12:28:43;;;;;;;64.00;58.20;;;-2.00;99.90;;;;;;5070505;28;20230;-71
2021/12/08 12:31:45;;;;;;;64.23;58.07;;;-2.10;99.90;;;;;;5068562;28;20679;-72
2021/12/08 12:34:37;;;;;;;62.93;56.93;;;-2.10;99.90;;;;;;5090796;27;20757;-73
2021/12/08 12:37:32;;;;;;;66.33;60.00;;;-1.90;99.90;;;;;;5076240;28;20367;-72
2021/12/08 12:40:33;;;;;;;61.83;56.03;;;-1.70;99.90;;;;;;5078173;28;20218;-74
2021/12/08 12:43:26;;;;;;;63.43;57.33;;;-1.90;99.90;;;;;;5069534;28;20215;-75
2021/12/08 12:46:17;;;;;;;64.30;58.53;;;-1.80;99.90;;;;;;5070165;28;20239;-75
2021/12/08 12:49:25;;;;;;;65.73;59.53;;;-1.80;99.90;;;;;;5083965;28;20310;-75
2021/12/08 12:52:16;;;;;;;62.40;57.00;;;-1.80;99.90;;;;;;5068849;28;20223;-74
2021/12/08 12:55:10;;;;;;;65.90;60.13;;;-1.70;99.90;;;;;;5081481;28;20247;-74
2021/12/08 12:58:19;;;;;;;65.47;59.43;;;-1.90;99.90;;;;;;5079644;28;20260;-73
2021/12/08 13:01:10;;;;;;;64.03;57.87;;;-1.90;99.90;;;;;;5052777;28;21125;-72
2021/12/08 13:04:04;;;;;;;66.37;60.13;;;-1.90;99.90;;;;;;5066602;28;20223;-73
2021/12/08 13:06:59;;;;;;;68.00;61.47;;;-1.70;99.90;;;;;;5076376;28;20219;-72
2021/12/08 13:09:52;;;;;;;63.90;58.30;;;-1.70;99.90;;;;;;5064529;28;20227;-72
2021/12/08 13:12:44;;;;;;;63.13;57.13;;;-1.70;99.90;;;;;;5079458;28;20219;-71
2021/12/08 13:15:35;;;;;;;64.47;58.57;;;-1.70;99.90;;;;;;5071827;28;20251;-70
2021/12/08 13:18:27;;;;;;;65.43;59.43;;;-1.70;99.90;;;;;;5074322;28;20276;-71
2021/12/08 13:21:15;;;;;;;65.77;59.27;;;-1.70;99.90;;;;;;5060538;28;20227;-71
2021/12/08 13:24:04;;;;;;;63.00;57.13;;;-1.60;99.90;;;;;;5063334;28;20963;-72
2021/12/08 13:27:00;;;;;;;63.47;57.80;;;-1.70;99.90;;;;;;5071691;28;20314;-70
2021/12/08 13:30:11;;;;;;;62.17;56.60;;;-1.70;99.90;;;;;;5060652;28;20230;-72
2021/12/08 13:33:09;;;;;;;61.23;55.63;;;-1.70;99.90;;;;;;5074921;28;20296;-71
2021/12/08 13:36:00;;;;;;;64.50;58.67;;;-1.70;99.90;;;;;;5077862;28;20333;-70
2021/12/08 13:39:28;;;;;;;65.17;59.17;;;-1.60;99.90;;;;;;5094396;27;20228;-71
2021/12/08 13:42:50;;;;;;;62.73;57.03;;;-1.60;99.90;;;;;;5077085;28;20215;-72
2021/12/08 13:45:43;;;;;;;61.77;56.40;;;-1.60;99.90;;;;;;5076437;28;20232;-72
2021/12/08 13:48:33;;;;;;;64.33;58.53;;;-1.60;99.90;;;;;;5079295;28;20217;-72
2021/12/08 13:51:23;;;;;;;64.13;58.00;;;-1.60;99.90;;;;;;5079676;28;20952;-69
2021/12/08 13:54:25;;;;;;;62.43;56.57;;;-1.60;99.90;;;;;;5082079;28;20230;-71
2021/12/08 13:57:37;;;;;;;63.20;57.63;;;-1.70;99.90;;;;;;5082512;28;20321;-72
2021/12/08 14:00:36;;;;;;;60.03;54.63;;;-1.80;99.90;;;;;;5094330;27;20361;-71
2021/12/08 14:03:37;;;;;;;64.30;58.53;;;-1.90;99.90;;;;;;5073874;28;20251;-70
2021/12/08 14:06:26;;;;;;;62.47;57.03;;;-1.80;99.90;;;;;;5078031;28;20568;-73
2021/12/08 14:09:16;;;;;;;60.07;54.77;;;-1.80;99.90;;;;;;5059955;28;20760;-71
2021/12/08 14:12:05;;;;;;;63.90;58.30;;;-1.80;99.90;;;;;;5070496;28;20221;-70
2021/12/08 14:14:58;;;;;;;61.60;56.20;;;-1.70;99.90;;;;;;5083757;28;20668;-70
2021/12/08 14:17:49;;;;;;;58.27;53.17;;;-1.70;99.90;;;;;;5069567;28;20231;-69
2021/12/08 14:20:40;;;;;;;59.30;54.47;;;-1.80;99.90;;;;;;5065538;28;20978;-71
2021/12/08 14:23:31;;;;;;;62.57;56.97;;;-1.70;99.90;;;;;;5080218;28;20211;-70
2021/12/08 14:26:23;;;;;;;61.50;56.37;;;-1.70;99.90;;;;;;5064327;28;20226;-71
2021/12/08 14:29:15;;;;;;;63.40;58.00;;;-1.60;99.90;;;;;;5070032;28;20211;-71
2021/12/08 14:32:05;;;;;;;61.40;56.10;;;-1.60;99.90;;;;;;5080467;28;20294;-71
2021/12/08 14:34:53;;;;;;;62.83;57.27;;;-1.70;99.90;;;;;;5077072;28;20219;-72
2021/12/08 14:37:44;;;;;;;63.10;57.27;;;-1.70;99.90;;;;;;5067057;28;20227;-72
2021/12/08 14:40:32;;;;;;;62.53;56.87;;;-1.70;99.90;;;;;;5077462;28;20223;-72
2021/12/08 14:43:26;;;;;;;66.47;60.43;;;-1.60;99.90;;;;;;5074704;28;20227;-72
2021/12/08 14:46:18;;;;;;;64.73;58.47;;;-1.70;99.90;;;;;;5074789;28;22230;-71
2021/12/08 14:49:14;;;;;;;65.13;59.03;;;-1.70;99.90;;;;;;5053324;28;20291;-72
2021/12/08 14:52:06;;;;;;;64.40;58.50;;;-1.80;99.90;;;;;;5069184;28;20718;-71
2021/12/08 14:54:58;;;;;;;66.70;60.27;;;-1.70;99.90;;;;;;5055472;28;20230;-71
2021/12/08 14:57:49;;;;;;;66.70;60.20;;;-1.80;99.90;;;;;;5076010;28;20638;-71
2021/12/08 15:00:39;;;;;;;64.57;58.33;;;-1.90;99.90;;;;;;5064717;28;20232;-72
2021/12/08 15:03:29;;;;;;;68.60;61.53;;;-1.80;99.90;;;;;;5063320;28;20227;-72
2021/12/08 15:06:21;;;;;;;67.30;60.33;;;-2.00;99.90;;;;;;5079526;28;20718;-71
2021/12/08 15:09:14;;;;;;;65.63;59.17;;;-1.90;99.90;;;;;;5070269;28;20311;-70